Time;durP1;ratioP1;P1;durP2;ratioP2;P2;SDS_P1;SDS_P2;PMS_P1;PMS_P2;Temp;Humidity;BMP_temperature;BMP_pressure;BME280_temperature;BME280_humidity;BME280_pressure;Samples;Min_cycle;Max_cycle;Signal;HPM_P1;HPM_P2
2022/02/07 00:00:06;;;;;;;;;;;5.30;69.70;;;;;;5035725;28;20282;-81
2022/02/07 00:03:00;;;;;;;;;;;5.30;20.90;;;;;;5039289;28;19963;-83
2022/02/07 00:05:23;;;;;;;;;;;5.30;32.80;;;;;;5046714;28;20010;-82
2022/02/07 00:07:48;;;;;;;;;;;5.30;42.90;;;;;;5039347;28;19951;-83
2022/02/07 00:10:14;;;;;;;;;;;5.30;1.00;;;;;;5038848;28;20308;-83
2022/02/07 00:12:41;;;;;;;;;;;5.30;99.90;;;;;;5037609;28;20035;-83
2022/02/07 00:15:10;;;;;;;;;;;5.30;99.90;;;;;;5037887;28;19913;-83
2022/02/07 00:17:35;;;;;;;;;;;5.30;99.90;;;;;;5037742;28;19914;-82
2022/02/07 00:20:07;;;;;;;;;;;5.20;99.90;;;;;;5036858;28;19932;-83
2022/02/07 00:22:32;;;;;;;;;;;5.20;99.90;;;;;;5039078;28;19913;-83
2022/02/07 00:24:58;;;;;;;;;;;5.00;99.90;;;;;;5037644;28;19947;-83
2022/02/07 00:27:23;;;;;;;;;;;5.00;99.90;;;;;;5041376;28;19928;-83
2022/02/07 00:29:48;;;;;;;;;;;4.90;99.90;;;;;;5046057;28;19948;-82
2022/02/07 00:32:14;;;;;;;;;;;4.80;99.90;;;;;;5042908;28;19924;-82
2022/02/07 00:34:39;;;;;;;;;;;4.80;99.90;;;;;;5044556;28;19913;-83
2022/02/07 00:37:05;;;;;;;;;;;4.80;99.90;;;;;;5039318;28;20266;-84
2022/02/07 00:39:39;;;;;;;;;;;4.80;1.00;;;;;;5033062;28;19925;-83
2022/02/07 00:42:07;;;;;;;;;;;4.80;1.00;;;;;;5037705;28;20300;-83
2022/02/07 00:44:33;;;;;;;;;;;4.60;99.90;;;;;;5037813;28;19914;-83
2022/02/07 00:47:05;;;;;;;;;;;4.60;1.00;;;;;;5036889;28;20317;-83
2022/02/07 00:49:30;;;;;;;;;;;4.50;99.90;;;;;;5038915;28;20433;-84
2022/02/07 00:51:56;;;;;;;;;;;4.50;18.70;;;;;;5036225;28;19913;-83
2022/02/07 00:54:21;;;;;;;;;;;4.50;99.90;;;;;;5036265;28;20368;-83
2022/02/07 00:56:47;;;;;;;;;;;4.40;99.90;;;;;;5036643;28;20543;-83
2022/02/07 00:59:12;;;;;;;;;;;4.40;99.90;;;;;;5035547;28;20439;-83
2022/02/07 01:01:38;;;;;;;;;;;4.40;99.90;;;;;;5034539;28;19913;-82
2022/02/07 01:04:03;;;;;;;;;;;4.40;1.00;;;;;;5037510;28;19952;-84
2022/02/07 01:06:29;;;;;;;;;;;4.30;1.00;;;;;;5038081;28;19983;-83
2022/02/07 01:09:10;;;;;;;;;;;4.30;99.90;;;;;;5038422;28;19913;-82
2022/02/07 01:14:12;;;;;;;;;;;4.40;1.00;;;;;;5037351;28;19913;-83
2022/02/07 01:17:29;;;;;;;;;;;4.40;1.00;;;;;;5031239;28;19913;-83
2022/02/07 01:55:03;;;;;;;;;;;4.00;99.90;;;;;;5035442;28;19917;-82
2022/02/07 01:56:53;;;;;;;;;;;3.90;99.90;;;;;;5028428;28;20351;-82
2022/02/07 01:59:19;;;;;;;;;;;3.90;99.90;;;;;;5033519;28;20039;-83
2022/02/07 02:01:44;;;;;;;;;;;3.90;99.90;;;;;;5032766;28;19959;-83
2022/02/07 02:04:10;;;;;;;;;;;3.90;99.90;;;;;;5034270;28;19960;-82
2022/02/07 02:06:36;;;;;;;;;;;3.90;99.90;;;;;;5033545;28;19925;-83
2022/02/07 02:09:03;;;;;;;;;;;3.90;99.90;;;;;;5033883;28;19913;-82
2022/02/07 02:11:28;;;;;;;;;;;4.00;99.90;;;;;;5042770;28;19917;-82
2022/02/07 02:14:17;;;;;;;;;;;4.00;99.90;;;;;;5034199;28;19920;-84
2022/02/07 02:17:01;;;;;;;;;;;4.10;99.90;;;;;;5029824;28;20313;-83
2022/02/07 02:22:43;;;;;;;;;;;4.20;99.90;;;;;;5034005;28;19951;-84
2022/02/07 02:35:53;;;;;;;;;;;3.90;99.90;;;;;;5033888;28;20377;-82
2022/02/07 02:38:25;;;;;;;;;;;3.90;99.90;;;;;;5034389;28;19952;-83
2022/02/07 02:46:23;;;;;;;;;;;3.70;20.10;;;;;;5029932;28;19920;-83
2022/02/07 02:48:48;;;;;;;;;;;3.70;1.00;;;;;;5032394;28;19913;-84
2022/02/07 02:51:16;;;;;;;;;;;3.70;99.90;;;;;;5031597;28;20274;-84
2022/02/07 02:53:41;;;;;;;;;;;3.70;67.30;;;;;;5033290;28;20381;-82
2022/02/07 02:56:07;;;;;;;;;;;3.70;1.00;;;;;;5033819;28;19913;-84
2022/02/07 02:58:32;;;;;;;;;;;3.70;1.00;;;;;;5034951;28;19971;-84
2022/02/07 03:00:58;;;;;;;;;;;3.70;1.00;;;;;;5034492;28;20461;-83
2022/02/07 03:03:23;;;;;;;;;;;3.70;99.90;;;;;;5028150;28;19944;-84
2022/02/07 03:05:49;;;;;;;;;;;3.70;99.90;;;;;;5031817;28;19917;-84
2022/02/07 03:08:16;;;;;;;;;;;3.70;99.90;;;;;;5033558;28;19914;-83
2022/02/07 03:13:14;;;;;;;;;;;3.70;99.90;;;;;;5035127;28;20360;-84
2022/02/07 03:18:24;;;;;;;;;;;3.60;1.00;;;;;;5035189;28;19928;-82
2022/02/07 03:20:50;;;;;;;;;;;3.60;1.00;;;;;;5026550;28;19949;-83
2022/02/07 03:23:16;;;;;;;;;;;3.50;1.00;;;;;;5036421;28;19913;-82
2022/02/07 03:25:41;;;;;;;;;;;3.50;1.00;;;;;;5043072;28;19913;-81
2022/02/07 03:28:07;;;;;;;;;;;3.50;42.20;;;;;;5032819;28;19914;-83
2022/02/07 03:30:33;;;;;;;;;;;3.50;99.90;;;;;;5031839;28;19914;-82
2022/02/07 03:32:58;;;;;;;;;;;3.50;99.90;;;;;;5032511;28;19937;-83
2022/02/07 03:35:24;;;;;;;;;;;3.50;99.90;;;;;;5032284;28;19921;-82
2022/02/07 03:37:49;;;;;;;;;;;3.50;1.00;;;;;;5034090;28;19925;-83
2022/02/07 03:40:16;;;;;;;;;;;3.50;1.00;;;;;;5030532;28;19920;-83
2022/02/07 03:42:41;;;;;;;;;;;3.50;1.00;;;;;;5032245;28;20003;-82
2022/02/07 03:45:07;;;;;;;;;;;3.40;1.00;;;;;;5029315;28;20405;-83
2022/02/07 03:47:32;;;;;;;;;;;3.40;54.30;;;;;;5032148;28;20007;-81
2022/02/07 03:49:58;;;;;;;;;;;3.40;99.90;;;;;;5031251;28;19913;-82
2022/02/07 03:52:24;;;;;;;;;;;3.40;99.90;;;;;;5031347;28;19928;-81
2022/02/07 03:54:50;;;;;;;;;;;3.40;99.90;;;;;;5032564;28;19959;-83
2022/02/07 03:57:16;;;;;;;;;;;3.40;99.90;;;;;;5029702;28;20381;-82
2022/02/07 03:59:41;;;;;;;;;;;3.40;99.90;;;;;;5032855;28;19914;-82
2022/02/07 04:02:07;;;;;;;;;;;3.30;99.90;;;;;;5031607;28;19936;-83
2022/02/07 04:04:33;;;;;;;;;;;3.30;99.90;;;;;;5032424;28;20300;-83
2022/02/07 04:06:58;;;;;;;;;;;3.30;1.00;;;;;;5029852;28;20399;-82
2022/02/07 04:09:30;;;;;;;;;;;3.30;1.00;;;;;;5031518;28;19921;-83
2022/02/07 04:12:06;;;;;;;;;;;3.30;1.00;;;;;;5032522;28;19913;-83
2022/02/07 04:14:31;;;;;;;;;;;3.30;1.00;;;;;;5032132;28;20004;-82
2022/02/07 04:16:57;;;;;;;;;;;3.30;1.00;;;;;;5034165;28;20358;-83
2022/02/07 04:19:30;;;;;;;;;;;3.30;1.00;;;;;;5034985;28;19996;-82
2022/02/07 04:21:55;;;;;;;;;;;3.30;1.00;;;;;;5037449;28;19917;-82
2022/02/07 04:24:21;;;;;;;;;;;3.30;1.00;;;;;;5036348;28;20365;-82
2022/02/07 04:26:46;;;;;;;;;;;3.30;1.00;;;;;;5037480;28;19967;-84
2022/02/07 04:29:12;;;;;;;;;;;3.30;1.00;;;;;;5039463;28;19917;-81
2022/02/07 04:31:37;;;;;;;;;;;3.30;1.00;;;;;;5035220;28;20012;-82
2022/02/07 04:34:03;;;;;;;;;;;3.30;1.00;;;;;;5035352;28;19917;-83
2022/02/07 04:36:28;;;;;;;;;;;3.30;1.00;;;;;;5032698;28;20023;-84
2022/02/07 04:38:54;;;;;;;;;;;3.30;1.00;;;;;;5035997;28;19919;-82
2022/02/07 04:41:20;;;;;;;;;;;3.30;1.00;;;;;;5033222;28;19933;-82
2022/02/07 04:43:53;;;;;;;;;;;3.30;1.00;;;;;;5036326;28;19917;-83
2022/02/07 04:46:44;;;;;;;;;;;3.30;1.00;;;;;;5032688;28;19921;-83
2022/02/07 04:59:20;;;;;;;;;;;3.30;1.00;;;;;;5031341;28;19920;-82
2022/02/07 05:01:52;;;;;;;;;;;3.30;1.00;;;;;;5034292;28;19975;-83
2022/02/07 05:04:27;;;;;;;;;;;3.30;1.00;;;;;;5036104;28;19913;-83
2022/02/07 05:15:06;;;;;;;;;;;3.40;1.00;;;;;;5036299;28;20159;-83
2022/02/07 05:17:35;;;;;;;;;;;3.50;1.00;;;;;;5035740;28;20011;-83
2022/02/07 05:20:01;;;;;;;;;;;3.50;1.00;;;;;;5031415;28;19991;-83
2022/02/07 05:22:30;;;;;;;;;;;3.60;1.00;;;;;;5033148;28;20388;-82
2022/02/07 05:24:56;;;;;;;;;;;3.70;1.00;;;;;;5032248;28;19913;-83
2022/02/07 05:27:21;;;;;;;;;;;3.70;1.00;;;;;;5031673;28;19917;-83
2022/02/07 05:29:47;;;;;;;;;;;3.80;99.90;;;;;;5034178;28;19963;-84
2022/02/07 05:32:12;;;;;;;;;;;3.90;99.90;;;;;;5030617;28;19921;-81
2022/02/07 05:34:38;;;;;;;;;;;3.90;99.90;;;;;;5050720;28;19913;-84
2022/02/07 05:37:03;;;;;;;;;;;3.90;99.90;;;;;;5052345;28;19913;-82
2022/02/07 05:39:34;;;;;;;;;;;4.00;99.90;;;;;;5032141;28;19961;-82
2022/02/07 05:42:04;;;;;;;;;;;4.00;99.90;;;;;;5035501;28;20370;-83
2022/02/07 05:44:30;;;;;;;;;;;4.00;99.90;;;;;;5030906;28;20012;-82
2022/02/07 05:46:55;;;;;;;;;;;4.00;99.90;;;;;;5032247;28;19955;-83
2022/02/07 05:49:23;;;;;;;;;;;4.00;99.90;;;;;;5034393;28;19920;-83
2022/02/07 05:51:48;;;;;;;;;;;4.00;99.90;;;;;;5032452;28;19921;-83
2022/02/07 05:54:13;;;;;;;;;;;4.00;99.90;;;;;;5033224;28;19935;-82
2022/02/07 05:56:39;;;;;;;;;;;4.00;99.90;;;;;;5034607;28;19920;-83
2022/02/07 05:59:04;;;;;;;;;;;4.00;99.90;;;;;;5032718;28;20044;-83
2022/02/07 06:01:30;;;;;;;;;;;4.00;99.90;;;;;;5036723;28;19921;-83
2022/02/07 06:03:55;;;;;;;;;;;4.00;99.90;;;;;;5034564;28;20353;-83
2022/02/07 06:06:21;;;;;;;;;;;4.00;99.90;;;;;;5051185;28;19917;-84
2022/02/07 06:08:46;;;;;;;;;;;4.10;99.90;;;;;;5030511;28;19917;-83
2022/02/07 06:11:12;;;;;;;;;;;4.00;99.90;;;;;;5034566;28;19967;-82
2022/02/07 06:13:38;;;;;;;;;;;4.00;99.90;;;;;;5032141;28;19913;-83
2022/02/07 06:16:04;;;;;;;;;;;4.00;99.90;;;;;;5028843;28;19928;-83
2022/02/07 06:18:31;;;;;;;;;;;4.00;99.90;;;;;;5033585;28;19917;-85
2022/02/07 06:21:01;;;;;;;;;;;4.00;99.90;;;;;;5038331;28;20344;-83
2022/02/07 06:23:28;;;;;;;;;;;4.00;99.90;;;;;;5037265;28;19909;-83
2022/02/07 06:25:54;;;;;;;;;;;4.10;99.90;;;;;;5034015;28;19913;-84
2022/02/07 06:28:20;;;;;;;;;;;4.10;99.90;;;;;;5045149;28;20153;-85
2022/02/07 06:30:45;;;;;;;;;;;4.00;99.90;;;;;;5037562;28;19916;-84
2022/02/07 06:33:10;;;;;;;;;;;4.00;99.90;;;;;;5035286;28;19996;-83
2022/02/07 06:35:36;;;;;;;;;;;4.00;99.90;;;;;;5047522;28;19940;-83
2022/02/07 06:38:01;;;;;;;;;;;4.00;99.90;;;;;;5041013;28;20274;-82
2022/02/07 06:40:27;;;;;;;;;;;4.00;99.90;;;;;;5048040;28;19909;-86
2022/02/07 06:42:53;;;;;;;;;;;4.00;99.90;;;;;;5046082;28;19913;-85
2022/02/07 06:45:18;;;;;;;;;;;4.10;99.90;;;;;;5048036;28;19959;-85
2022/02/07 06:47:44;;;;;;;;;;;4.20;99.90;;;;;;5047610;28;19920;-85
2022/02/07 06:50:10;;;;;;;;;;;4.10;99.90;;;;;;5045715;28;20361;-85
2022/02/07 06:52:35;;;;;;;;;;;4.20;99.90;;;;;;5046388;28;19917;-85
2022/02/07 06:55:01;;;;;;;;;;;4.20;99.90;;;;;;5045951;28;19955;-85
2022/02/07 06:57:26;;;;;;;;;;;4.20;99.90;;;;;;5046773;28;19913;-85
2022/02/07 06:59:52;;;;;;;;;;;4.30;99.90;;;;;;5045691;28;19921;-85
2022/02/07 07:02:20;;;;;;;;;;;4.30;99.90;;;;;;5046989;28;19922;-84
2022/02/07 07:04:48;;;;;;;;;;;4.30;99.90;;;;;;5049157;28;19909;-86
2022/02/07 07:07:14;;;;;;;;;;;4.40;99.90;;;;;;5049238;28;19925;-85
2022/02/07 07:09:43;;;;;;;;;;;4.40;99.90;;;;;;5068556;28;19913;-86
2022/02/07 07:12:10;;;;;;;;;;;4.40;99.90;;;;;;5048666;28;19897;-86
2022/02/07 07:14:45;;;;;;;;;;;4.40;99.90;;;;;;5052304;28;19984;-86
2022/02/07 07:17:11;;;;;;;;;;;4.40;99.90;;;;;;5045487;28;19916;-86
2022/02/07 07:19:37;;;;;;;;;;;4.40;99.90;;;;;;5044904;28;19913;-86
2022/02/07 07:22:04;;;;;;;;;;;4.40;99.90;;;;;;5041845;28;19917;-85
2022/02/07 07:24:29;;;;;;;;;;;4.50;99.90;;;;;;5044556;28;20020;-85
2022/02/07 07:26:55;;;;;;;;;;;4.50;55.70;;;;;;5045311;28;19924;-85
2022/02/07 07:29:26;;;;;;;;;;;4.60;1.00;;;;;;5045231;28;19947;-85
2022/02/07 07:31:56;;;;;;;;;;;4.60;99.90;;;;;;5047072;28;19909;-85
2022/02/07 07:34:23;;;;;;;;;;;4.70;1.00;;;;;;5049281;28;19921;-84
2022/02/07 07:36:49;;;;;;;;;;;4.80;1.00;;;;;;5046230;28;19919;-87
2022/02/07 07:39:15;;;;;;;;;;;5.10;99.90;;;;;;5067916;28;19925;-87
2022/02/07 07:41:43;;;;;;;;;;;5.30;1.00;;;;;;5038120;28;19917;-87
2022/02/07 07:44:09;;;;;;;;;;;5.50;99.90;;;;;;5020441;28;19917;-87
2022/02/07 07:46:35;;;;;;;;;;;6.00;99.90;;;;;;5031834;28;19939;-87
2022/02/07 07:49:07;;;;;;;;;;;6.50;1.00;;;;;;5036535;28;19913;-87
2022/02/07 07:54:23;;;;;;;;;;;8.50;1.00;;;;;;5029801;28;19917;-87
2022/02/07 08:02:15;;;;;;;;;;;10.70;1.00;;;;;;5045745;22;19967;-87
2022/02/07 08:04:48;;;;;;;;;;;11.40;1.00;;;;;;5017595;28;20336;-87
2022/02/07 08:07:38;;;;;;;;;;;11.90;1.00;;;;;;5031311;28;19967;-87
2022/02/07 08:10:30;;;;;;;;;;;12.20;1.00;;;;;;5014266;28;19917;-87
2022/02/07 08:13:00;;;;;;;;;;;11.90;1.00;;;;;;5013634;28;19913;-86
2022/02/07 08:15:31;;;;;;;;;;;11.60;1.00;;;;;;5029016;28;19913;-87
2022/02/07 08:18:03;;;;;;;;;;;12.20;1.00;;;;;;5028496;28;19917;-88
2022/02/07 08:20:31;;;;;;;;;;;12.90;1.00;;;;;;5019304;28;19909;-86
2022/02/07 08:23:05;;;;;;;;;;;13.70;1.00;;;;;;5031156;28;19913;-88
2022/02/07 08:25:37;;;;;;;;;;;15.10;1.00;;;;;;5039734;28;19912;-87
2022/02/07 08:28:03;;;;;;;;;;;15.60;1.00;;;;;;5020164;28;19963;-88
2022/02/07 08:30:35;;;;;;;;;;;16.20;1.00;;;;;;5031240;28;19920;-87
2022/02/07 08:33:02;;;;;;;;;;;16.30;1.00;;;;;;5030606;28;19917;-88
2022/02/07 08:35:31;;;;;;;;;;;16.70;1.00;;;;;;5026557;28;19909;-88
2022/02/07 08:38:02;;;;;;;;;;;15.60;1.00;;;;;;5040321;28;19921;-87
2022/02/07 08:40:29;;;;;;;;;;;14.40;1.00;;;;;;5018119;28;19916;-88
2022/02/07 08:42:55;;;;;;;;;;;14.20;1.00;;;;;;5041714;28;19925;-87
2022/02/07 08:45:21;;;;;;;;;;;13.90;1.00;;;;;;5019828;28;20281;-87
2022/02/07 08:47:47;;;;;;;;;;;14.70;1.00;;;;;;5040903;28;19960;-87
2022/02/07 08:50:15;;;;;;;;;;;15.70;1.00;;;;;;5019315;28;19982;-87
2022/02/07 08:52:46;;;;;;;;;;;16.00;1.00;;;;;;5013225;28;19909;-87
2022/02/07 08:55:16;;;;;;;;;;;16.60;1.00;;;;;;5053146;28;20385;-86
2022/02/07 08:57:45;;;;;;;;;;;17.70;1.00;;;;;;5026653;28;19967;-87
2022/02/07 09:00:23;;;;;;;;;;;18.40;1.00;;;;;;5022107;28;19956;-87
2022/02/07 09:05:34;;;;;;;;;;;19.80;1.00;;;;;;5039775;28;19920;-87
2022/02/07 09:08:20;;;;;;;;;;;18.40;1.00;;;;;;5023309;28;19913;-86
2022/02/07 09:10:47;;;;;;;;;;;15.80;1.00;;;;;;5024118;28;20333;-85
2022/02/07 09:13:13;;;;;;;;;;;13.80;1.00;;;;;;5011158;28;20439;-86
2022/02/07 09:15:43;;;;;;;;;;;15.30;1.00;;;;;;5020794;28;19917;-86
2022/02/07 09:18:11;;;;;;;;;;;16.70;1.00;;;;;;5019683;28;20301;-86
2022/02/07 09:20:43;;;;;;;;;;;16.80;1.00;;;;;;5031614;28;19921;-85
2022/02/07 09:23:08;;;;;;;;;;;16.30;1.00;;;;;;5040395;28;19924;-85
2022/02/07 09:25:34;;;;;;;;;;;16.90;1.00;;;;;;5017558;28;20305;-86
2022/02/07 09:28:00;;;;;;;;;;;18.00;1.00;;;;;;5011280;28;19925;-85
2022/02/07 09:30:25;;;;;;;;;;;18.30;1.00;;;;;;5022022;28;19964;-85
2022/02/07 09:32:51;;;;;;;;;;;19.00;1.00;;;;;;5016939;28;19917;-86
2022/02/07 09:35:17;;;;;;;;;;;19.60;1.00;;;;;;5035862;28;19935;-86
2022/02/07 09:37:42;;;;;;;;;;;19.60;1.00;;;;;;5041285;28;20143;-85
2022/02/07 09:40:09;;;;;;;;;;;20.00;1.00;;;;;;5032916;28;20011;-86
2022/02/07 09:42:35;;;;;;;;;;;20.30;1.00;;;;;;5030510;28;20187;-86
2022/02/07 09:45:12;;;;;;;;;;;20.00;1.00;;;;;;5044211;28;20055;-86
2022/02/07 09:47:38;;;;;;;;;;;20.50;1.00;;;;;;5043651;28;19916;-87
2022/02/07 09:50:07;;;;;;;;;;;19.80;1.00;;;;;;5047375;28;19920;-86
2022/02/07 09:52:34;;;;;;;;;;;17.70;1.00;;;;;;5020184;28;19913;-86
2022/02/07 09:54:59;;;;;;;;;;;17.80;1.00;;;;;;5062194;28;19925;-86
2022/02/07 09:57:25;;;;;;;;;;;19.30;1.00;;;;;;5064163;28;19929;-85
2022/02/07 09:59:52;;;;;;;;;;;18.70;1.00;;;;;;5057565;28;19972;-85
2022/02/07 10:02:31;;;;;;;;;;;18.00;1.00;;;;;;5058456;28;19968;-85
2022/02/07 10:05:00;;;;;;;;;;;18.60;1.00;;;;;;5042173;28;19913;-86
2022/02/07 10:07:39;;;;;;;;;;;19.40;1.00;;;;;;5055820;28;19909;-88
2022/02/07 10:10:23;;;;;;;;;;;19.80;1.00;;;;;;5024198;28;19917;-87
2022/02/07 10:15:39;;;;;;;;;;;18.50;99.90;;;;;;5040614;28;19923;-89
2022/02/07 10:18:21;;;;;;;;;;;17.00;99.90;;;;;;5047753;28;20012;-87
2022/02/07 10:35:25;;;;;;;;;;;11.70;99.90;;;;;;5050608;28;19935;-86
2022/02/07 10:41:18;;;;;;;;;;;11.40;99.90;;;;;;5051824;28;19924;-87
2022/02/07 10:46:19;;;;;;;;;;;10.80;99.90;;;;;;5050773;28;19967;-87
2022/02/07 10:48:52;;;;;;;;;;;10.50;99.90;;;;;;5032417;28;19910;-87
2022/02/07 10:51:24;;;;;;;;;;;10.40;99.90;;;;;;5025627;28;20404;-86
2022/02/07 10:53:54;;;;;;;;;;;10.60;99.90;;;;;;5041855;28;19963;-87
2022/02/07 10:56:42;;;;;;;;;;;10.40;99.90;;;;;;5021567;28;19913;-87
2022/02/07 10:59:30;;;;;;;;;;;10.60;99.90;;;;;;5019737;28;19909;-87
2022/02/07 11:06:59;;;;;;;;;;;10.90;99.90;;;;;;5044706;28;19920;-86
2022/02/07 11:27:51;;;;;;;;;;;14.70;99.90;;;;;;5037478;28;19924;-90
2022/02/07 11:30:19;;;;;;;;;;;15.50;99.90;;;;;;5021339;28;19912;-89
2022/02/07 11:32:49;;;;;;;;;;;15.10;99.90;;;;;;5031206;28;19914;-90
2022/02/07 11:35:24;;;;;;;;;;;15.70;99.90;;;;;;5033282;28;20327;-90
2022/02/07 11:38:09;;;;;;;;;;;15.80;99.90;;;;;;5020261;28;20004;-89
2022/02/07 11:40:42;;;;;;;;;;;14.50;99.90;;;;;;5026037;28;19913;-87
2022/02/07 11:43:14;;;;;;;;;;;13.50;99.90;;;;;;5033506;28;19913;-90
2022/02/07 11:46:00;;;;;;;;;;;13.30;99.90;;;;;;5020874;28;19913;-89
2022/02/07 11:48:25;;;;;;;;;;;12.90;99.90;;;;;;5014337;28;19984;-88
2022/02/07 11:50:55;;;;;;;;;;;12.70;99.90;;;;;;5033109;28;19914;-90
2022/02/07 11:53:26;;;;;;;;;;;12.70;99.90;;;;;;5020838;28;19914;-89
2022/02/07 11:56:06;;;;;;;;;;;12.30;99.90;;;;;;5025749;28;19983;-89
2022/02/07 11:58:51;;;;;;;;;;;12.20;99.90;;;;;;5016910;28;20303;-90
2022/02/07 12:01:30;;;;;;;;;;;11.80;99.90;;;;;;5023393;28;19913;-91
2022/02/07 12:04:09;;;;;;;;;;;11.50;99.90;;;;;;5017552;28;19947;-90
2022/02/07 12:06:35;;;;;;;;;;;11.20;99.90;;;;;;5031576;28;19931;-90
2022/02/07 12:09:17;;;;;;;;;;;11.00;99.90;;;;;;5016998;28;19913;-89
2022/02/07 12:12:05;;;;;;;;;;;;;;;;;;;;;
2022/02/07 12:14:37;;;;;;;;;;;10.30;99.90;;;;;;5025271;28;20427;-90
2022/02/07 12:17:07;;;;;;;;;;;11.80;99.90;;;;;;5018126;28;19913;-91
2022/02/07 12:19:58;;;;;;;;;;;13.40;99.90;;;;;;5016122;28;19952;-91
2022/02/07 12:22:30;;;;;;;;;;;14.10;99.90;;;;;;5014191;28;19936;-90
2022/02/07 12:25:09;;;;;;;;;;;13.80;99.90;;;;;;5010407;28;19913;-91
2022/02/07 12:27:48;;;;;;;;;;;15.00;99.90;;;;;;5018481;28;19920;-91
2022/02/07 12:30:31;;;;;;;;;;;13.80;99.90;;;;;;5017926;28;19913;-90
2022/02/07 12:33:17;;;;;;;;;;;;;;;;;;;;;
2022/02/07 12:35:53;;;;;;;;;;;14.10;99.90;;;;;;5055694;28;20000;-90
2022/02/07 12:38:19;;;;;;;;;;;13.90;99.90;;;;;;5047753;28;19921;-90
2022/02/07 12:40:50;;;;;;;;;;;13.10;99.90;;;;;;5045689;28;19913;-90
2022/02/07 12:43:18;;;;;;;;;;;13.50;99.90;;;;;;5020488;28;19975;-89
2022/02/07 12:45:43;;;;;;;;;;;13.80;99.90;;;;;;5022224;28;19909;-90
2022/02/07 12:48:20;;;;;;;;;;;14.80;99.90;;;;;;5022133;28;20397;-89
2022/02/07 12:50:51;;;;;;;;;;;14.50;99.90;;;;;;5018275;28;19949;-89
2022/02/07 12:53:19;;;;;;;;;;;14.00;99.90;;;;;;5000698;28;19914;-89
2022/02/07 12:55:46;;;;;;;;;;;13.70;99.90;;;;;;5020929;28;19909;-90
2022/02/07 12:58:12;;;;;;;;;;;13.30;99.90;;;;;;5021563;28;19999;-88
2022/02/07 13:00:38;;;;;;;;;;;13.10;99.90;;;;;;5020094;28;19913;-89
2022/02/07 13:03:04;;;;;;;;;;;12.80;99.90;;;;;;5020067;28;19924;-89
2022/02/07 13:05:35;;;;;;;;;;;12.40;99.90;;;;;;5020398;28;19924;-89
2022/02/07 13:08:11;;;;;;;;;;;12.00;99.90;;;;;;5024311;28;19920;-89
2022/02/07 13:10:39;;;;;;;;;;;11.80;99.90;;;;;;5023024;28;19960;-89
2022/02/07 13:16:04;;;;;;;;;;;11.50;99.90;;;;;;5033664;28;19959;-89
2022/02/07 13:18:52;;;;;;;;;;;11.10;99.90;;;;;;5016981;28;19913;-89
2022/02/07 13:21:24;;;;;;;;;;;10.80;99.90;;;;;;5023955;28;19913;-89
2022/02/07 13:23:52;;;;;;;;;;;10.60;99.90;;;;;;5022658;28;19940;-89
2022/02/07 13:26:18;;;;;;;;;;;10.30;99.90;;;;;;5033492;28;20300;-89
2022/02/07 13:28:53;;;;;;;;;;;10.30;99.90;;;;;;5026335;28;19909;-89
2022/02/07 13:31:24;;;;;;;;;;;10.10;99.90;;;;;;5025068;28;19913;-89
2022/02/07 13:34:02;;;;;;;;;;;10.20;99.90;;;;;;5042432;28;19917;-90
2022/02/07 13:36:39;;;;;;;;;;;10.60;99.90;;;;;;5055076;28;19917;-90
2022/02/07 13:39:08;;;;;;;;;;;10.90;99.90;;;;;;5033499;28;19913;-89
2022/02/07 13:41:40;;;;;;;;;;;11.10;99.90;;;;;;5024085;28;19944;-90
2022/02/07 13:44:29;;;;;;;;;;;10.80;99.90;;;;;;5007686;28;19966;-90
2022/02/07 13:47:22;;;;;;;;;;;10.40;99.90;;;;;;5020950;28;19918;-90
2022/02/07 13:50:03;;;;;;;;;;;10.20;99.90;;;;;;5029987;28;20353;-89
2022/02/07 13:52:37;;;;;;;;;;;10.70;99.90;;;;;;5031771;28;19953;-90
2022/02/07 13:55:20;;;;;;;;;;;11.30;99.90;;;;;;5023086;28;19909;-89
2022/02/07 13:57:57;;;;;;;;;;;12.10;99.90;;;;;;5025883;28;19913;-90
2022/02/07 14:00:32;;;;;;;;;;;12.30;99.90;;;;;;5024222;28;20019;-90
2022/02/07 14:03:19;;;;;;;;;;;12.30;99.90;;;;;;5029847;28;19917;-90
2022/02/07 14:05:52;;;;;;;;;;;12.70;99.90;;;;;;5048767;28;19902;-88
2022/02/07 14:08:32;;;;;;;;;;;12.30;99.90;;;;;;5049869;28;19913;-90
2022/02/07 14:10:57;;;;;;;;;;;11.80;99.90;;;;;;5044381;28;20343;-90
2022/02/07 14:13:23;;;;;;;;;;;11.50;99.90;;;;;;5031132;28;19999;-84
2022/02/07 14:15:51;;;;;;;;;;;11.40;99.90;;;;;;5020691;28;19915;-86
2022/02/07 14:18:18;;;;;;;;;;;11.10;99.90;;;;;;5040038;28;19920;-87
2022/02/07 14:20:45;;;;;;;;;;;11.00;99.90;;;;;;5038961;28;19913;-87
2022/02/07 14:23:11;;;;;;;;;;;10.80;99.90;;;;;;5028764;28;19913;-86
2022/02/07 14:25:38;;;;;;;;;;;10.60;99.90;;;;;;5024610;28;19913;-87
2022/02/07 14:28:04;;;;;;;;;;;10.40;99.90;;;;;;5041962;28;19935;-87
2022/02/07 14:30:30;;;;;;;;;;;10.10;99.90;;;;;;5053424;28;19909;-87
2022/02/07 14:33:00;;;;;;;;;;;10.40;99.90;;;;;;5021441;28;20083;-87
2022/02/07 14:35:26;;;;;;;;;;;10.50;99.90;;;;;;5022581;28;19917;-87
2022/02/07 14:37:52;;;;;;;;;;;10.40;99.90;;;;;;5021083;28;19969;-87
2022/02/07 14:40:17;;;;;;;;;;;10.20;99.90;;;;;;5021164;28;19940;-87
2022/02/07 14:42:46;;;;;;;;;;;10.10;99.90;;;;;;5018241;28;19909;-87
2022/02/07 14:50:10;;;;;;;;;;;10.10;99.90;;;;;;5034304;28;20020;-88
2022/02/07 14:52:36;;;;;;;;;;;10.00;99.90;;;;;;5028735;28;19917;-87
2022/02/07 14:55:02;;;;;;;;;;;10.10;99.90;;;;;;5015536;28;19959;-88
2022/02/07 14:57:28;;;;;;;;;;;9.90;99.90;;;;;;5014723;28;19909;-88
2022/02/07 14:59:53;;;;;;;;;;;9.80;99.90;;;;;;5015115;28;20289;-88
2022/02/07 15:02:21;;;;;;;;;;;9.70;99.90;;;;;;5014957;28;19996;-88
2022/02/07 15:04:48;;;;;;;;;;;9.70;99.90;;;;;;5016312;28;19917;-88
2022/02/07 15:07:14;;;;;;;;;;;9.70;99.90;;;;;;5013466;28;19913;-87
2022/02/07 15:09:39;;;;;;;;;;;9.70;99.90;;;;;;5016385;28;19940;-88
2022/02/07 15:12:05;;;;;;;;;;;9.70;99.90;;;;;;5015217;28;19909;-87
2022/02/07 15:14:31;;;;;;;;;;;9.80;99.90;;;;;;5014970;28;20314;-88
2022/02/07 15:16:56;;;;;;;;;;;10.00;99.90;;;;;;5032582;28;19909;-88
2022/02/07 15:19:24;;;;;;;;;;;10.20;99.90;;;;;;5020510;28;19917;-88
2022/02/07 15:21:50;;;;;;;;;;;10.20;99.90;;;;;;5015910;28;19928;-88
2022/02/07 15:24:16;;;;;;;;;;;10.30;99.90;;;;;;5015369;28;19924;-85
2022/02/07 15:26:42;;;;;;;;;;;10.50;99.90;;;;;;5015271;28;19917;-88
2022/02/07 15:29:09;;;;;;;;;;;10.50;99.90;;;;;;5019139;28;19920;-89
2022/02/07 15:31:34;;;;;;;;;;;10.70;99.90;;;;;;5015278;28;19921;-90
2022/02/07 15:34:00;;;;;;;;;;;10.80;99.90;;;;;;5015580;28;19917;-90
2022/02/07 15:36:26;;;;;;;;;;;10.80;99.90;;;;;;5019941;28;19913;-89
2022/02/07 15:39:03;;;;;;;;;;;10.40;99.90;;;;;;5026851;28;19936;-91
2022/02/07 15:41:38;;;;;;;;;;;10.30;99.90;;;;;;5017357;28;19913;-90
2022/02/07 15:44:07;;;;;;;;;;;10.10;99.90;;;;;;5034395;28;19956;-88
2022/02/07 15:46:38;;;;;;;;;;;9.90;99.90;;;;;;5015875;28;19917;-89
2022/02/07 15:49:15;;;;;;;;;;;9.90;99.90;;;;;;5016511;28;19920;-90
2022/02/07 15:51:53;;;;;;;;;;;9.90;99.90;;;;;;5016059;28;19909;-90
2022/02/07 15:54:21;;;;;;;;;;;9.80;99.90;;;;;;5016608;28;19941;-90
2022/02/07 15:57:06;;;;;;;;;;;9.80;99.90;;;;;;5017044;28;19916;-90
2022/02/07 15:59:43;;;;;;;;;;;9.70;99.90;;;;;;5035152;28;19949;-90
2022/02/07 16:02:09;;;;;;;;;;;9.60;99.90;;;;;;5017741;28;19913;-89
2022/02/07 16:04:50;;;;;;;;;;;9.50;99.90;;;;;;5033969;28;19917;-89
2022/02/07 16:07:16;;;;;;;;;;;9.40;99.90;;;;;;5020292;28;19923;-90
2022/02/07 16:09:46;;;;;;;;;;;9.20;99.90;;;;;;5022703;28;20350;-88
2022/02/07 16:12:14;;;;;;;;;;;9.00;99.90;;;;;;5018861;28;19921;-90
2022/02/07 16:14:56;;;;;;;;;;;8.90;99.90;;;;;;5019360;28;19921;-89
2022/02/07 16:20:39;;;;;;;;;;;8.60;99.90;;;;;;5036178;28;19980;-89
2022/02/07 16:23:22;;;;;;;;;;;8.50;99.90;;;;;;5020665;28;19909;-89
2022/02/07 16:25:50;;;;;;;;;;;8.40;99.90;;;;;;5014510;28;19936;-89
2022/02/07 16:28:25;;;;;;;;;;;8.20;99.90;;;;;;5019229;28;20394;-88
2022/02/07 16:30:54;;;;;;;;;;;8.10;99.90;;;;;;5016858;28;19992;-88
2022/02/07 16:33:24;;;;;;;;;;;8.00;99.90;;;;;;5037600;28;19944;-89
2022/02/07 16:35:50;;;;;;;;;;;7.90;99.90;;;;;;5025775;28;20329;-89
2022/02/07 16:38:16;;;;;;;;;;;7.70;99.90;;;;;;5014324;28;19963;-88
2022/02/07 16:40:45;;;;;;;;;;;7.60;99.90;;;;;;5018572;28;19909;-88
2022/02/07 16:43:27;;;;;;;;;;;7.60;99.90;;;;;;5014787;28;19917;-88
2022/02/07 16:48:19;;;;;;;;;;;7.40;99.90;;;;;;5039564;28;20062;-88
2022/02/07 16:50:48;;;;;;;;;;;7.40;99.90;;;;;;5016850;28;19913;-89
2022/02/07 16:53:21;;;;;;;;;;;7.40;99.90;;;;;;5026600;28;20258;-88
2022/02/07 16:55:46;;;;;;;;;;;7.40;99.90;;;;;;5022392;28;20008;-88
2022/02/07 16:58:12;;;;;;;;;;;7.40;99.90;;;;;;5023512;28;19967;-83
2022/02/07 17:00:38;;;;;;;;;;;7.40;99.90;;;;;;5039899;28;19987;-84
2022/02/07 17:03:05;;;;;;;;;;;7.40;99.90;;;;;;5022073;28;19996;-84
2022/02/07 17:05:31;;;;;;;;;;;7.40;99.90;;;;;;5024872;28;19917;-84
2022/02/07 17:07:57;;;;;;;;;;;7.30;99.90;;;;;;5046740;28;20479;-84
2022/02/07 17:10:22;;;;;;;;;;;7.30;99.90;;;;;;5046063;28;19971;-84
2022/02/07 17:12:51;;;;;;;;;;;7.30;99.90;;;;;;5038427;28;20266;-84
2022/02/07 17:15:16;;;;;;;;;;;7.30;99.90;;;;;;5036881;28;19913;-84